sensor_id;sensor_type;location;lat;lon;timestamp;P1;durP1;ratioP1;P2;durP2;ratioP2
58468;SDS011;44257;44.804;10.220;2022-09-27T00:02:04;0.73;;;0.47;;
58468;SDS011;44257;44.804;10.220;2022-09-27T00:04:30;0.45;;;0.30;;
58468;SDS011;44257;44.804;10.220;2022-09-27T00:06:56;0.30;;;0.30;;
58468;SDS011;44257;44.804;10.220;2022-09-27T00:09:22;2.92;;;0.88;;
58468;SDS011;44257;44.804;10.220;2022-09-27T00:11:48;2.13;;;0.57;;
58468;SDS011;44257;44.804;10.220;2022-09-27T00:14:14;0.98;;;0.85;;
58468;SDS011;44257;44.804;10.220;2022-09-27T00:16:41;0.40;;;0.30;;
58468;SDS011;44257;44.804;10.220;2022-09-27T00:19:12;0.22;;;0.22;;
58468;SDS011;44257;44.804;10.220;2022-09-27T00:21:40;0.63;;;0.30;;
58468;SDS011;44257;44.804;10.220;2022-09-27T00:24:08;1.15;;;0.80;;
58468;SDS011;44257;44.804;10.220;2022-09-27T00:26:39;0.63;;;0.45;;
58468;SDS011;44257;44.804;10.220;2022-09-27T00:29:05;0.60;;;0.38;;
58468;SDS011;44257;44.804;10.220;2022-09-27T00:31:32;0.45;;;0.20;;
58468;SDS011;44257;44.804;10.220;2022-09-27T00:33:59;0.98;;;0.50;;
58468;SDS011;44257;44.804;10.220;2022-09-27T00:36:26;0.40;;;0.28;;
58468;SDS011;44257;44.804;10.220;2022-09-27T00:38:53;0.52;;;0.25;;
58468;SDS011;44257;44.804;10.220;2022-09-27T00:41:23;0.32;;;0.20;;
58468;SDS011;44257;44.804;10.220;2022-09-27T00:43:55;0.80;;;0.50;;
58468;SDS011;44257;44.804;10.220;2022-09-27T00:46:39;5.00;;;0.68;;
58468;SDS011;44257;44.804;10.220;2022-09-27T00:49:20;0.28;;;0.20;;
58468;SDS011;44257;44.804;10.220;2022-09-27T00:51:53;1.05;;;0.30;;
58468;SDS011;44257;44.804;10.220;2022-09-27T00:54:24;4.03;;;1.27;;
58468;SDS011;44257;44.804;10.220;2022-09-27T00:56:53;0.60;;;0.30;;
58468;SDS011;44257;44.804;10.220;2022-09-27T00:59:22;0.28;;;0.25;;
58468;SDS011;44257;44.804;10.220;2022-09-27T01:01:53;0.28;;;0.20;;
58468;SDS011;44257;44.804;10.220;2022-09-27T01:04:20;0.75;;;0.50;;
58468;SDS011;44257;44.804;10.220;2022-09-27T01:06:49;0.32;;;0.20;;
58468;SDS011;44257;44.804;10.220;2022-09-27T01:09:15;0.70;;;0.40;;
58468;SDS011;44257;44.804;10.220;2022-09-27T01:11:43;0.88;;;0.40;;
58468;SDS011;44257;44.804;10.220;2022-09-27T01:19:44;1.27;;;0.57;;
58468;SDS011;44257;44.804;10.220;2022-09-27T01:22:35;0.63;;;0.38;;
58468;SDS011;44257;44.804;10.220;2022-09-27T01:31:04;1.77;;;0.50;;
58468;SDS011;44257;44.804;10.220;2022-09-27T01:33:41;0.98;;;0.88;;
58468;SDS011;44257;44.804;10.220;2022-09-27T01:42:25;0.73;;;0.40;;
58468;SDS011;44257;44.804;10.220;2022-09-27T01:48:02;0.38;;;0.25;;
58468;SDS011;44257;44.804;10.220;2022-09-27T01:50:56;1.27;;;0.52;;
58468;SDS011;44257;44.804;10.220;2022-09-27T01:53:30;0.70;;;0.43;;
58468;SDS011;44257;44.804;10.220;2022-09-27T01:59:04;0.60;;;0.43;;
58468;SDS011;44257;44.804;10.220;2022-09-27T02:01:32;0.98;;;0.55;;
58468;SDS011;44257;44.804;10.220;2022-09-27T02:04:01;0.70;;;0.38;;
58468;SDS011;44257;44.804;10.220;2022-09-27T02:07:00;1.88;;;1.20;;
58468;SDS011;44257;44.804;10.220;2022-09-27T02:09:49;1.08;;;0.70;;
58468;SDS011;44257;44.804;10.220;2022-09-27T02:12:28;1.27;;;0.98;;
58468;SDS011;44257;44.804;10.220;2022-09-27T02:20:15;0.68;;;0.38;;
58468;SDS011;44257;44.804;10.220;2022-09-27T02:25:34;1.73;;;0.95;;
58468;SDS011;44257;44.804;10.220;2022-09-27T02:31:03;1.17;;;0.77;;
58468;SDS011;44257;44.804;10.220;2022-09-27T02:33:49;1.98;;;1.25;;
58468;SDS011;44257;44.804;10.220;2022-09-27T02:36:19;3.78;;;1.80;;
58468;SDS011;44257;44.804;10.220;2022-09-27T02:38:46;7.40;;;2.80;;
58468;SDS011;44257;44.804;10.220;2022-09-27T02:41:19;3.70;;;2.03;;
58468;SDS011;44257;44.804;10.220;2022-09-27T02:43:51;3.80;;;2.70;;
58468;SDS011;44257;44.804;10.220;2022-09-27T02:49:19;6.30;;;3.70;;
58468;SDS011;44257;44.804;10.220;2022-09-27T02:58:34;3.70;;;2.38;;
58468;SDS011;44257;44.804;10.220;2022-09-27T03:00:56;6.60;;;2.92;;
58468;SDS011;44257;44.804;10.220;2022-09-27T03:04:06;2.45;;;1.85;;
58468;SDS011;44257;44.804;10.220;2022-09-27T03:06:53;5.95;;;3.20;;
58468;SDS011;44257;44.804;10.220;2022-09-27T03:09:23;3.58;;;2.22;;
58468;SDS011;44257;44.804;10.220;2022-09-27T03:11:53;2.40;;;1.80;;
58468;SDS011;44257;44.804;10.220;2022-09-27T03:14:19;5.25;;;3.42;;
58468;SDS011;44257;44.804;10.220;2022-09-27T03:16:56;4.93;;;2.92;;
58468;SDS011;44257;44.804;10.220;2022-09-27T03:19:40;3.95;;;3.30;;
58468;SDS011;44257;44.804;10.220;2022-09-27T03:22:32;4.60;;;2.58;;
58468;SDS011;44257;44.804;10.220;2022-09-27T03:24:59;7.75;;;3.58;;
58468;SDS011;44257;44.804;10.220;2022-09-27T03:27:25;10.23;;;3.85;;
58468;SDS011;44257;44.804;10.220;2022-09-27T03:29:51;5.10;;;3.67;;
58468;SDS011;44257;44.804;10.220;2022-09-27T03:32:17;7.40;;;3.47;;
58468;SDS011;44257;44.804;10.220;2022-09-27T03:35:06;4.22;;;3.17;;
58468;SDS011;44257;44.804;10.220;2022-09-27T03:37:32;2.15;;;1.90;;
58468;SDS011;44257;44.804;10.220;2022-09-27T03:39:58;4.43;;;2.50;;
58468;SDS011;44257;44.804;10.220;2022-09-27T03:42:23;5.30;;;3.58;;
58468;SDS011;44257;44.804;10.220;2022-09-27T03:44:51;5.13;;;3.53;;
58468;SDS011;44257;44.804;10.220;2022-09-27T03:47:17;11.52;;;5.35;;
58468;SDS011;44257;44.804;10.220;2022-09-27T03:49:45;6.13;;;3.58;;
58468;SDS011;44257;44.804;10.220;2022-09-27T03:52:12;4.45;;;3.15;;
58468;SDS011;44257;44.804;10.220;2022-09-27T03:54:39;6.35;;;3.45;;
58468;SDS011;44257;44.804;10.220;2022-09-27T03:57:05;4.97;;;3.03;;
58468;SDS011;44257;44.804;10.220;2022-09-27T03:59:32;5.28;;;2.92;;
58468;SDS011;44257;44.804;10.220;2022-09-27T04:02:30;5.07;;;3.60;;
58468;SDS011;44257;44.804;10.220;2022-09-27T04:05:14;3.85;;;2.25;;
58468;SDS011;44257;44.804;10.220;2022-09-27T04:07:49;5.60;;;3.08;;
58468;SDS011;44257;44.804;10.220;2022-09-27T04:10:17;5.35;;;2.88;;
58468;SDS011;44257;44.804;10.220;2022-09-27T04:12:43;8.52;;;4.03;;
58468;SDS011;44257;44.804;10.220;2022-09-27T04:15:10;6.20;;;3.47;;
58468;SDS011;44257;44.804;10.220;2022-09-27T04:17:48;6.45;;;3.92;;
58468;SDS011;44257;44.804;10.220;2022-09-27T04:20:26;6.85;;;3.78;;
58468;SDS011;44257;44.804;10.220;2022-09-27T04:22:52;6.32;;;3.28;;
58468;SDS011;44257;44.804;10.220;2022-09-27T04:25:19;9.80;;;2.97;;
58468;SDS011;44257;44.804;10.220;2022-09-27T04:27:47;6.55;;;4.50;;
58468;SDS011;44257;44.804;10.220;2022-09-27T04:30:16;4.13;;;2.10;;
58468;SDS011;44257;44.804;10.220;2022-09-27T04:33:05;13.73;;;3.85;;
58468;SDS011;44257;44.804;10.220;2022-09-27T04:35:54;8.35;;;4.18;;
58468;SDS011;44257;44.804;10.220;2022-09-27T04:38:55;3.88;;;3.55;;
58468;SDS011;44257;44.804;10.220;2022-09-27T04:41:23;4.80;;;3.67;;
58468;SDS011;44257;44.804;10.220;2022-09-27T04:43:50;7.45;;;3.83;;
58468;SDS011;44257;44.804;10.220;2022-09-27T04:46:17;5.20;;;2.75;;
58468;SDS011;44257;44.804;10.220;2022-09-27T04:48:43;6.47;;;4.82;;
58468;SDS011;44257;44.804;10.220;2022-09-27T04:51:09;7.53;;;3.67;;
58468;SDS011;44257;44.804;10.220;2022-09-27T04:53:35;5.45;;;4.53;;
58468;SDS011;44257;44.804;10.220;2022-09-27T04:56:01;7.32;;;4.78;;
58468;SDS011;44257;44.804;10.220;2022-09-27T04:58:31;4.13;;;2.90;;
58468;SDS011;44257;44.804;10.220;2022-09-27T05:00:58;8.48;;;4.57;;
58468;SDS011;44257;44.804;10.220;2022-09-27T05:03:46;6.18;;;3.72;;
58468;SDS011;44257;44.804;10.220;2022-09-27T05:06:13;6.18;;;4.72;;
58468;SDS011;44257;44.804;10.220;2022-09-27T05:08:40;5.18;;;3.42;;
58468;SDS011;44257;44.804;10.220;2022-09-27T05:11:19;4.07;;;2.47;;
58468;SDS011;44257;44.804;10.220;2022-09-27T05:14:03;6.03;;;3.67;;
58468;SDS011;44257;44.804;10.220;2022-09-27T05:19:19;4.55;;;3.50;;
58468;SDS011;44257;44.804;10.220;2022-09-27T05:22:06;5.65;;;2.70;;
58468;SDS011;44257;44.804;10.220;2022-09-27T05:24:32;8.02;;;4.72;;
58468;SDS011;44257;44.804;10.220;2022-09-27T05:26:59;8.98;;;5.55;;
58468;SDS011;44257;44.804;10.220;2022-09-27T05:29:26;17.25;;;3.90;;
58468;SDS011;44257;44.804;10.220;2022-09-27T05:32:04;5.95;;;3.67;;
58468;SDS011;44257;44.804;10.220;2022-09-27T05:34:30;5.85;;;3.97;;
58468;SDS011;44257;44.804;10.220;2022-09-27T05:36:57;7.57;;;3.83;;
58468;SDS011;44257;44.804;10.220;2022-09-27T05:39:23;5.63;;;4.43;;
58468;SDS011;44257;44.804;10.220;2022-09-27T05:41:49;5.78;;;4.40;;
58468;SDS011;44257;44.804;10.220;2022-09-27T05:44:15;8.52;;;3.72;;
58468;SDS011;44257;44.804;10.220;2022-09-27T05:46:52;6.82;;;5.07;;
58468;SDS011;44257;44.804;10.220;2022-09-27T05:49:18;7.65;;;5.50;;
58468;SDS011;44257;44.804;10.220;2022-09-27T05:51:44;6.93;;;4.00;;
58468;SDS011;44257;44.804;10.220;2022-09-27T05:54:11;11.88;;;6.80;;
58468;SDS011;44257;44.804;10.220;2022-09-27T05:56:37;9.15;;;3.83;;
58468;SDS011;44257;44.804;10.220;2022-09-27T05:59:24;11.98;;;4.15;;
58468;SDS011;44257;44.804;10.220;2022-09-27T06:02:24;7.18;;;5.55;;
58468;SDS011;44257;44.804;10.220;2022-09-27T06:05:10;14.65;;;5.25;;
58468;SDS011;44257;44.804;10.220;2022-09-27T06:07:39;11.85;;;5.47;;
58468;SDS011;44257;44.804;10.220;2022-09-27T06:10:10;8.55;;;6.43;;
58468;SDS011;44257;44.804;10.220;2022-09-27T06:12:36;13.55;;;7.03;;
58468;SDS011;44257;44.804;10.220;2022-09-27T06:15:06;6.60;;;4.25;;
58468;SDS011;44257;44.804;10.220;2022-09-27T06:17:36;8.13;;;4.82;;
58468;SDS011;44257;44.804;10.220;2022-09-27T06:20:10;10.35;;;4.53;;
58468;SDS011;44257;44.804;10.220;2022-09-27T06:22:36;9.32;;;4.63;;
58468;SDS011;44257;44.804;10.220;2022-09-27T06:25:03;12.82;;;6.57;;
58468;SDS011;44257;44.804;10.220;2022-09-27T06:27:32;6.25;;;4.47;;
58468;SDS011;44257;44.804;10.220;2022-09-27T06:30:05;9.30;;;4.63;;
58468;SDS011;44257;44.804;10.220;2022-09-27T06:32:43;13.40;;;6.95;;
58468;SDS011;44257;44.804;10.220;2022-09-27T06:35:18;6.78;;;5.13;;
58468;SDS011;44257;44.804;10.220;2022-09-27T06:37:44;10.20;;;5.45;;
58468;SDS011;44257;44.804;10.220;2022-09-27T06:40:10;10.23;;;7.47;;
58468;SDS011;44257;44.804;10.220;2022-09-27T06:43:08;12.75;;;6.68;;
58468;SDS011;44257;44.804;10.220;2022-09-27T06:46:01;8.30;;;5.13;;
58468;SDS011;44257;44.804;10.220;2022-09-27T06:48:49;7.90;;;4.45;;
58468;SDS011;44257;44.804;10.220;2022-09-27T06:51:17;9.18;;;6.63;;
58468;SDS011;44257;44.804;10.220;2022-09-27T06:53:44;9.27;;;5.88;;
58468;SDS011;44257;44.804;10.220;2022-09-27T06:56:10;9.77;;;5.70;;
58468;SDS011;44257;44.804;10.220;2022-09-27T06:58:46;8.02;;;4.72;;
58468;SDS011;44257;44.804;10.220;2022-09-27T07:01:43;8.45;;;4.35;;
58468;SDS011;44257;44.804;10.220;2022-09-27T07:04:27;8.20;;;5.30;;
58468;SDS011;44257;44.804;10.220;2022-09-27T07:07:22;13.27;;;8.57;;
58468;SDS011;44257;44.804;10.220;2022-09-27T07:09:48;13.20;;;6.05;;
58468;SDS011;44257;44.804;10.220;2022-09-27T07:12:14;12.20;;;7.53;;
58468;SDS011;44257;44.804;10.220;2022-09-27T07:14:41;17.75;;;6.53;;
58468;SDS011;44257;44.804;10.220;2022-09-27T07:17:11;12.48;;;8.82;;
58468;SDS011;44257;44.804;10.220;2022-09-27T07:19:41;13.52;;;6.90;;
58468;SDS011;44257;44.804;10.220;2022-09-27T07:22:08;9.57;;;6.68;;
58468;SDS011;44257;44.804;10.220;2022-09-27T07:24:34;15.52;;;8.38;;
58468;SDS011;44257;44.804;10.220;2022-09-27T07:27:00;11.63;;;6.75;;
58468;SDS011;44257;44.804;10.220;2022-09-27T07:29:26;8.75;;;6.07;;
58468;SDS011;44257;44.804;10.220;2022-09-27T07:31:52;21.05;;;7.90;;
58468;SDS011;44257;44.804;10.220;2022-09-27T07:34:18;13.50;;;7.75;;
58468;SDS011;44257;44.804;10.220;2022-09-27T07:36:44;15.40;;;9.52;;
58468;SDS011;44257;44.804;10.220;2022-09-27T07:39:11;10.25;;;5.75;;
58468;SDS011;44257;44.804;10.220;2022-09-27T07:41:37;8.57;;;6.50;;
58468;SDS011;44257;44.804;10.220;2022-09-27T07:44:05;11.52;;;7.82;;
58468;SDS011;44257;44.804;10.220;2022-09-27T07:46:39;9.88;;;6.65;;
58468;SDS011;44257;44.804;10.220;2022-09-27T07:49:08;10.60;;;7.55;;
58468;SDS011;44257;44.804;10.220;2022-09-27T07:51:48;14.02;;;6.65;;
58468;SDS011;44257;44.804;10.220;2022-09-27T07:54:34;11.48;;;6.15;;
58468;SDS011;44257;44.804;10.220;2022-09-27T07:57:20;11.40;;;6.22;;
58468;SDS011;44257;44.804;10.220;2022-09-27T07:59:49;12.95;;;8.13;;
58468;SDS011;44257;44.804;10.220;2022-09-27T08:02:17;9.57;;;6.45;;
58468;SDS011;44257;44.804;10.220;2022-09-27T08:04:44;8.07;;;5.75;;
58468;SDS011;44257;44.804;10.220;2022-09-27T08:07:13;9.75;;;5.82;;
58468;SDS011;44257;44.804;10.220;2022-09-27T08:09:40;11.82;;;8.02;;
58468;SDS011;44257;44.804;10.220;2022-09-27T08:12:06;13.13;;;6.70;;
58468;SDS011;44257;44.804;10.220;2022-09-27T08:14:32;10.48;;;7.45;;
58468;SDS011;44257;44.804;10.220;2022-09-27T08:16:59;9.88;;;7.10;;
58468;SDS011;44257;44.804;10.220;2022-09-27T08:19:27;9.45;;;6.03;;
58468;SDS011;44257;44.804;10.220;2022-09-27T08:21:59;9.45;;;5.95;;
58468;SDS011;44257;44.804;10.220;2022-09-27T08:24:47;9.80;;;5.90;;
58468;SDS011;44257;44.804;10.220;2022-09-27T08:27:21;12.00;;;7.18;;
58468;SDS011;44257;44.804;10.220;2022-09-27T08:29:52;9.90;;;6.63;;
58468;SDS011;44257;44.804;10.220;2022-09-27T08:32:17;13.82;;;7.75;;
58468;SDS011;44257;44.804;10.220;2022-09-27T08:34:43;10.40;;;6.00;;
58468;SDS011;44257;44.804;10.220;2022-09-27T08:37:09;9.05;;;7.03;;
58468;SDS011;44257;44.804;10.220;2022-09-27T08:39:36;12.80;;;7.40;;
58468;SDS011;44257;44.804;10.220;2022-09-27T08:42:11;11.13;;;8.13;;
58468;SDS011;44257;44.804;10.220;2022-09-27T08:44:54;12.27;;;6.35;;
58468;SDS011;44257;44.804;10.220;2022-09-27T08:47:35;11.75;;;8.38;;
58468;SDS011;44257;44.804;10.220;2022-09-27T08:50:17;9.40;;;7.53;;
58468;SDS011;44257;44.804;10.220;2022-09-27T08:52:46;13.18;;;6.50;;
58468;SDS011;44257;44.804;10.220;2022-09-27T08:55:26;9.48;;;6.07;;
58468;SDS011;44257;44.804;10.220;2022-09-27T08:58:27;11.45;;;6.63;;
58468;SDS011;44257;44.804;10.220;2022-09-27T09:00:56;11.35;;;6.18;;
58468;SDS011;44257;44.804;10.220;2022-09-27T09:03:43;10.02;;;7.90;;
58468;SDS011;44257;44.804;10.220;2022-09-27T09:06:27;9.27;;;6.28;;
58468;SDS011;44257;44.804;10.220;2022-09-27T09:14:37;11.20;;;5.63;;
58468;SDS011;44257;44.804;10.220;2022-09-27T09:23:06;9.18;;;6.72;;
58468;SDS011;44257;44.804;10.220;2022-09-27T09:25:45;13.38;;;6.93;;
58468;SDS011;44257;44.804;10.220;2022-09-27T09:31:14;8.98;;;6.43;;
58468;SDS011;44257;44.804;10.220;2022-09-27T09:33:48;9.77;;;5.55;;
58468;SDS011;44257;44.804;10.220;2022-09-27T09:39:13;10.20;;;7.85;;
58468;SDS011;44257;44.804;10.220;2022-09-27T09:41:55;8.25;;;4.70;;
58468;SDS011;44257;44.804;10.220;2022-09-27T09:47:04;9.18;;;5.13;;
58468;SDS011;44257;44.804;10.220;2022-09-27T09:49:51;9.35;;;5.30;;
58468;SDS011;44257;44.804;10.220;2022-09-27T09:52:28;10.38;;;5.20;;
58468;SDS011;44257;44.804;10.220;2022-09-27T09:55:23;10.87;;;5.30;;
58468;SDS011;44257;44.804;10.220;2022-09-27T09:57:58;6.72;;;4.32;;
58468;SDS011;44257;44.804;10.220;2022-09-27T10:00:42;5.45;;;4.18;;
58468;SDS011;44257;44.804;10.220;2022-09-27T10:03:08;8.75;;;4.93;;
58468;SDS011;44257;44.804;10.220;2022-09-27T10:05:34;6.93;;;4.07;;
58468;SDS011;44257;44.804;10.220;2022-09-27T10:08:05;9.40;;;5.03;;
58468;SDS011;44257;44.804;10.220;2022-09-27T10:10:35;8.15;;;4.72;;
58468;SDS011;44257;44.804;10.220;2022-09-27T10:13:30;9.13;;;5.20;;
58468;SDS011;44257;44.804;10.220;2022-09-27T10:16:05;7.22;;;4.10;;
58468;SDS011;44257;44.804;10.220;2022-09-27T10:18:35;6.10;;;3.88;;
58468;SDS011;44257;44.804;10.220;2022-09-27T10:21:21;7.05;;;4.35;;
58468;SDS011;44257;44.804;10.220;2022-09-27T10:26:47;7.95;;;4.32;;
58468;SDS011;44257;44.804;10.220;2022-09-27T10:31:44;6.70;;;3.47;;
58468;SDS011;44257;44.804;10.220;2022-09-27T10:34:36;6.78;;;3.70;;
58468;SDS011;44257;44.804;10.220;2022-09-27T10:39:53;5.45;;;3.45;;
58468;SDS011;44257;44.804;10.220;2022-09-27T10:44:52;7.07;;;3.67;;
58468;SDS011;44257;44.804;10.220;2022-09-27T10:47:38;6.10;;;4.22;;
58468;SDS011;44257;44.804;10.220;2022-09-27T10:50:18;13.25;;;4.38;;
58468;SDS011;44257;44.804;10.220;2022-09-27T10:53:03;7.32;;;4.32;;
58468;SDS011;44257;44.804;10.220;2022-09-27T10:55:42;10.35;;;3.80;;
58468;SDS011;44257;44.804;10.220;2022-09-27T10:58:17;5.10;;;3.05;;
58468;SDS011;44257;44.804;10.220;2022-09-27T11:00:55;5.20;;;3.75;;
58468;SDS011;44257;44.804;10.220;2022-09-27T11:03:30;7.25;;;4.35;;
58468;SDS011;44257;44.804;10.220;2022-09-27T11:05:58;6.03;;;3.72;;
58468;SDS011;44257;44.804;10.220;2022-09-27T11:08:27;7.90;;;3.78;;
58468;SDS011;44257;44.804;10.220;2022-09-27T11:13:56;7.00;;;4.30;;
58468;SDS011;44257;44.804;10.220;2022-09-27T11:25:11;4.05;;;2.58;;
58468;SDS011;44257;44.804;10.220;2022-09-27T11:39:08;6.78;;;2.17;;
58468;SDS011;44257;44.804;10.220;2022-09-27T11:44:53;5.05;;;2.08;;
58468;SDS011;44257;44.804;10.220;2022-09-27T12:03:43;4.15;;;1.70;;
58468;SDS011;44257;44.804;10.220;2022-09-27T12:06:26;2.88;;;1.33;;
58468;SDS011;44257;44.804;10.220;2022-09-27T12:09:16;3.55;;;1.67;;
58468;SDS011;44257;44.804;10.220;2022-09-27T12:12:02;2.50;;;1.30;;
58468;SDS011;44257;44.804;10.220;2022-09-27T12:17:19;5.13;;;2.70;;
58468;SDS011;44257;44.804;10.220;2022-09-27T12:19:56;2.67;;;1.45;;
58468;SDS011;44257;44.804;10.220;2022-09-27T12:22:48;2.75;;;1.67;;
58468;SDS011;44257;44.804;10.220;2022-09-27T12:25:22;2.92;;;1.35;;
58468;SDS011;44257;44.804;10.220;2022-09-27T12:30:49;2.63;;;1.38;;
58468;SDS011;44257;44.804;10.220;2022-09-27T12:35:58;2.65;;;1.40;;
58468;SDS011;44257;44.804;10.220;2022-09-27T12:41:35;2.22;;;1.40;;
58468;SDS011;44257;44.804;10.220;2022-09-27T12:44:25;1.70;;;1.23;;
58468;SDS011;44257;44.804;10.220;2022-09-27T12:47:00;1.85;;;1.33;;
58468;SDS011;44257;44.804;10.220;2022-09-27T12:49:42;2.25;;;1.23;;
58468;SDS011;44257;44.804;10.220;2022-09-27T12:52:30;2.25;;;1.20;;
58468;SDS011;44257;44.804;10.220;2022-09-27T12:57:45;1.55;;;0.95;;
58468;SDS011;44257;44.804;10.220;2022-09-27T13:00:18;3.05;;;1.40;;
58468;SDS011;44257;44.804;10.220;2022-09-27T13:09:00;3.50;;;1.63;;
58468;SDS011;44257;44.804;10.220;2022-09-27T13:14:23;2.83;;;1.33;;
58468;SDS011;44257;44.804;10.220;2022-09-27T13:16:52;3.03;;;1.55;;
58468;SDS011;44257;44.804;10.220;2022-09-27T13:19:37;4.93;;;1.50;;
58468;SDS011;44257;44.804;10.220;2022-09-27T13:22:34;2.90;;;1.25;;
58468;SDS011;44257;44.804;10.220;2022-09-27T13:31:14;1.80;;;1.02;;
58468;SDS011;44257;44.804;10.220;2022-09-27T13:39:03;2.88;;;1.25;;
58468;SDS011;44257;44.804;10.220;2022-09-27T13:42:06;2.22;;;1.27;;
58468;SDS011;44257;44.804;10.220;2022-09-27T13:45:47;2.65;;;1.17;;
58468;SDS011;44257;44.804;10.220;2022-09-27T13:47:42;4.70;;;1.50;;
58468;SDS011;44257;44.804;10.220;2022-09-27T13:50:23;3.72;;;1.85;;
58468;SDS011;44257;44.804;10.220;2022-09-27T13:53:19;2.92;;;1.70;;
58468;SDS011;44257;44.804;10.220;2022-09-27T13:55:54;2.53;;;1.40;;
58468;SDS011;44257;44.804;10.220;2022-09-27T13:58:39;4.32;;;1.98;;
58468;SDS011;44257;44.804;10.220;2022-09-27T14:01:52;3.53;;;2.60;;
58468;SDS011;44257;44.804;10.220;2022-09-27T14:04:44;5.72;;;2.40;;
58468;SDS011;44257;44.804;10.220;2022-09-27T14:07:15;4.75;;;2.50;;
58468;SDS011;44257;44.804;10.220;2022-09-27T14:09:46;10.00;;;2.50;;
58468;SDS011;44257;44.804;10.220;2022-09-27T14:12:27;5.93;;;2.17;;
58468;SDS011;44257;44.804;10.220;2022-09-27T14:15:11;4.53;;;1.42;;
58468;SDS011;44257;44.804;10.220;2022-09-27T14:17:45;2.30;;;1.48;;
58468;SDS011;44257;44.804;10.220;2022-09-27T14:23:45;1.38;;;0.77;;
58468;SDS011;44257;44.804;10.220;2022-09-27T14:26:24;0.80;;;0.40;;
58468;SDS011;44257;44.804;10.220;2022-09-27T14:28:52;2.58;;;0.75;;
58468;SDS011;44257;44.804;10.220;2022-09-27T14:31:28;0.10;;;0.10;;
58468;SDS011;44257;44.804;10.220;2022-09-27T14:34:06;0.63;;;0.47;;
58468;SDS011;44257;44.804;10.220;2022-09-27T14:36:34;0.47;;;0.23;;
58468;SDS011;44257;44.804;10.220;2022-09-27T14:39:27;0.35;;;0.28;;
58468;SDS011;44257;44.804;10.220;2022-09-27T14:42:04;1.00;;;0.23;;
58468;SDS011;44257;44.804;10.220;2022-09-27T14:44:44;1.65;;;0.30;;
58468;SDS011;44257;44.804;10.220;2022-09-27T14:47:20;2.63;;;0.35;;
58468;SDS011;44257;44.804;10.220;2022-09-27T14:49:52;0.20;;;0.20;;
58468;SDS011;44257;44.804;10.220;2022-09-27T14:52:26;1.17;;;0.52;;
58468;SDS011;44257;44.804;10.220;2022-09-27T14:57:30;2.38;;;1.08;;
58468;SDS011;44257;44.804;10.220;2022-09-27T15:03:01;0.68;;;0.35;;
58468;SDS011;44257;44.804;10.220;2022-09-27T15:05:30;0.50;;;0.50;;
58468;SDS011;44257;44.804;10.220;2022-09-27T15:07:58;2.85;;;0.80;;
58468;SDS011;44257;44.804;10.220;2022-09-27T15:10:28;2.47;;;0.30;;
58468;SDS011;44257;44.804;10.220;2022-09-27T15:12:57;2.00;;;0.60;;
58468;SDS011;44257;44.804;10.220;2022-09-27T15:15:26;0.85;;;0.45;;
58468;SDS011;44257;44.804;10.220;2022-09-27T15:17:56;3.28;;;0.50;;
58468;SDS011;44257;44.804;10.220;2022-09-27T15:22:57;1.38;;;0.22;;
58468;SDS011;44257;44.804;10.220;2022-09-27T15:25:32;0.40;;;0.30;;
58468;SDS011;44257;44.804;10.220;2022-09-27T15:28:20;0.70;;;0.40;;
58468;SDS011;44257;44.804;10.220;2022-09-27T15:30:53;2.50;;;0.52;;
58468;SDS011;44257;44.804;10.220;2022-09-27T15:33:31;10.55;;;0.63;;
58468;SDS011;44257;44.804;10.220;2022-09-27T15:35:59;1.75;;;0.40;;
58468;SDS011;44257;44.804;10.220;2022-09-27T15:38:33;5.40;;;0.77;;
58468;SDS011;44257;44.804;10.220;2022-09-27T15:41:10;5.93;;;1.40;;
58468;SDS011;44257;44.804;10.220;2022-09-27T15:43:42;0.47;;;0.32;;
58468;SDS011;44257;44.804;10.220;2022-09-27T15:51:45;1.77;;;0.40;;
58468;SDS011;44257;44.804;10.220;2022-09-27T15:54:12;4.75;;;0.40;;
58468;SDS011;44257;44.804;10.220;2022-09-27T15:56:41;2.90;;;1.17;;
58468;SDS011;44257;44.804;10.220;2022-09-27T15:59:12;0.20;;;0.20;;
58468;SDS011;44257;44.804;10.220;2022-09-27T16:01:47;0.10;;;0.10;;
58468;SDS011;44257;44.804;10.220;2022-09-27T16:04:13;1.35;;;0.28;;
58468;SDS011;44257;44.804;10.220;2022-09-27T16:06:40;0.00;;;0.00;;
58468;SDS011;44257;44.804;10.220;2022-09-27T16:09:12;1.05;;;0.77;;
58468;SDS011;44257;44.804;10.220;2022-09-27T16:11:43;2.00;;;0.68;;
58468;SDS011;44257;44.804;10.220;2022-09-27T16:14:10;0.95;;;0.40;;
58468;SDS011;44257;44.804;10.220;2022-09-27T16:16:41;0.05;;;0.05;;
58468;SDS011;44257;44.804;10.220;2022-09-27T16:19:08;0.35;;;0.35;;
58468;SDS011;44257;44.804;10.220;2022-09-27T16:21:34;0.85;;;0.32;;
58468;SDS011;44257;44.804;10.220;2022-09-27T16:24:00;0.20;;;0.20;;
58468;SDS011;44257;44.804;10.220;2022-09-27T16:26:27;0.47;;;0.30;;
58468;SDS011;44257;44.804;10.220;2022-09-27T16:28:53;0.68;;;0.20;;
58468;SDS011;44257;44.804;10.220;2022-09-27T16:31:20;2.60;;;0.28;;
58468;SDS011;44257;44.804;10.220;2022-09-27T16:33:49;0.10;;;0.10;;
58468;SDS011;44257;44.804;10.220;2022-09-27T16:36:15;4.88;;;0.75;;
58468;SDS011;44257;44.804;10.220;2022-09-27T16:38:50;1.02;;;0.43;;
58468;SDS011;44257;44.804;10.220;2022-09-27T16:41:17;0.52;;;0.45;;
58468;SDS011;44257;44.804;10.220;2022-09-27T16:43:44;2.78;;;0.98;;
58468;SDS011;44257;44.804;10.220;2022-09-27T16:46:11;2.55;;;0.80;;
58468;SDS011;44257;44.804;10.220;2022-09-27T16:48:40;1.58;;;0.65;;
58468;SDS011;44257;44.804;10.220;2022-09-27T16:51:10;1.27;;;0.60;;
58468;SDS011;44257;44.804;10.220;2022-09-27T16:53:57;0.20;;;0.20;;
58468;SDS011;44257;44.804;10.220;2022-09-27T16:56:23;0.17;;;0.13;;
58468;SDS011;44257;44.804;10.220;2022-09-27T16:58:49;1.73;;;0.30;;
58468;SDS011;44257;44.804;10.220;2022-09-27T17:01:15;1.67;;;0.55;;
58468;SDS011;44257;44.804;10.220;2022-09-27T17:03:41;1.17;;;0.68;;
58468;SDS011;44257;44.804;10.220;2022-09-27T17:06:09;0.20;;;0.08;;
58468;SDS011;44257;44.804;10.220;2022-09-27T17:08:35;1.65;;;0.20;;
58468;SDS011;44257;44.804;10.220;2022-09-27T17:11:01;0.17;;;0.10;;
58468;SDS011;44257;44.804;10.220;2022-09-27T17:13:27;0.55;;;0.13;;
58468;SDS011;44257;44.804;10.220;2022-09-27T17:15:53;0.70;;;0.38;;
58468;SDS011;44257;44.804;10.220;2022-09-27T17:18:19;1.05;;;0.45;;
58468;SDS011;44257;44.804;10.220;2022-09-27T17:20:45;0.70;;;0.25;;
58468;SDS011;44257;44.804;10.220;2022-09-27T17:23:11;0.63;;;0.40;;
58468;SDS011;44257;44.804;10.220;2022-09-27T17:25:36;4.57;;;0.95;;
58468;SDS011;44257;44.804;10.220;2022-09-27T17:28:02;0.73;;;0.38;;
58468;SDS011;44257;44.804;10.220;2022-09-27T17:30:28;2.28;;;0.30;;
58468;SDS011;44257;44.804;10.220;2022-09-27T17:32:55;0.30;;;0.30;;
58468;SDS011;44257;44.804;10.220;2022-09-27T17:35:22;4.07;;;0.20;;
58468;SDS011;44257;44.804;10.220;2022-09-27T17:37:48;2.47;;;0.73;;
58468;SDS011;44257;44.804;10.220;2022-09-27T17:40:14;1.58;;;0.52;;
58468;SDS011;44257;44.804;10.220;2022-09-27T17:42:40;0.30;;;0.30;;
58468;SDS011;44257;44.804;10.220;2022-09-27T17:45:06;2.55;;;0.47;;
58468;SDS011;44257;44.804;10.220;2022-09-27T17:47:33;0.75;;;0.17;;
58468;SDS011;44257;44.804;10.220;2022-09-27T17:50:37;0.77;;;0.40;;
58468;SDS011;44257;44.804;10.220;2022-09-27T17:53:03;0.80;;;0.70;;
58468;SDS011;44257;44.804;10.220;2022-09-27T17:55:29;2.75;;;0.40;;
58468;SDS011;44257;44.804;10.220;2022-09-27T17:57:55;0.22;;;0.22;;
58468;SDS011;44257;44.804;10.220;2022-09-27T18:00:20;2.72;;;0.93;;
58468;SDS011;44257;44.804;10.220;2022-09-27T18:02:46;0.10;;;0.10;;